Time;durP1;ratioP1;P1;durP2;ratioP2;P2;SDS_P1;SDS_P2;PMS_P1;PMS_P2;Temp;Humidity;BMP_temperature;BMP_pressure;BME280_temperature;BME280_humidity;BME280_pressure;Samples;Min_cycle;Max_cycle;Signal;HPM_P1;HPM_P2
2021/06/19 00:02:02;;;;;;;25.70;9.75;;;21.50;99.90;;;;;;5054420;28;20048;-75
2021/06/19 00:04:31;;;;;;;26.33;9.80;;;21.50;99.90;;;;;;5054221;28;20162;-75
2021/06/19 00:07:01;;;;;;;23.05;9.65;;;21.50;99.90;;;;;;5054093;28;20082;-76
2021/06/19 00:09:27;;;;;;;19.30;9.63;;;21.50;99.90;;;;;;5054470;28;20103;-76
2021/06/19 00:11:53;;;;;;;22.73;9.90;;;21.50;99.90;;;;;;5053983;28;20381;-75
2021/06/19 00:14:19;;;;;;;22.30;10.15;;;21.50;99.90;;;;;;5054565;28;20068;-75
2021/06/19 00:16:46;;;;;;;20.67;10.45;;;21.40;99.90;;;;;;5054393;28;20044;-76
2021/06/19 00:19:13;;;;;;;24.63;10.63;;;21.40;99.90;;;;;;5054191;28;20044;-75
2021/06/19 00:21:41;;;;;;;21.30;9.98;;;21.30;99.90;;;;;;5053790;28;20033;-75
2021/06/19 00:24:09;;;;;;;24.63;9.60;;;21.20;99.90;;;;;;5053916;28;20052;-76
2021/06/19 00:26:35;;;;;;;25.85;10.45;;;21.20;99.90;;;;;;5053748;28;20103;-76
2021/06/19 00:29:00;;;;;;;21.60;9.57;;;21.20;99.90;;;;;;5054032;28;20480;-76
2021/06/19 00:31:26;;;;;;;20.13;9.88;;;21.10;99.90;;;;;;5057296;28;20040;-76
2021/06/19 00:33:52;;;;;;;23.05;10.55;;;21.10;99.90;;;;;;5057981;28;20052;-75
2021/06/19 00:36:18;;;;;;;27.05;11.30;;;21.20;99.90;;;;;;5057678;28;20040;-76
2021/06/19 00:38:44;;;;;;;25.10;11.05;;;21.20;99.90;;;;;;5057384;28;20522;-75
2021/06/19 00:41:10;;;;;;;34.80;10.82;;;21.20;99.90;;;;;;5057460;28;20132;-76
2021/06/19 00:43:35;;;;;;;26.95;11.10;;;21.10;99.90;;;;;;5057860;28;20067;-76
2021/06/19 00:46:01;;;;;;;24.40;11.25;;;21.20;99.90;;;;;;5058017;28;20036;-75
2021/06/19 00:48:27;;;;;;;26.67;11.15;;;21.10;99.90;;;;;;5057457;28;20037;-75
2021/06/19 00:50:53;;;;;;;26.13;10.18;;;21.10;99.90;;;;;;5057667;28;20041;-76
2021/06/19 00:53:19;;;;;;;31.60;11.85;;;21.00;99.90;;;;;;5057691;28;20040;-75
2021/06/19 00:55:45;;;;;;;23.35;11.15;;;21.00;99.90;;;;;;5056814;28;20049;-75
2021/06/19 00:58:12;;;;;;;22.17;9.95;;;21.00;99.90;;;;;;5057330;28;20045;-76
2021/06/19 01:00:38;;;;;;;27.30;10.70;;;21.00;99.90;;;;;;5056974;28;20037;-75
2021/06/19 01:03:04;;;;;;;26.98;10.75;;;21.00;99.90;;;;;;5057252;28;20047;-76
2021/06/19 01:05:31;;;;;;;21.15;10.55;;;20.90;99.90;;;;;;5057807;28;20041;-75
2021/06/19 01:07:59;;;;;;;22.35;10.35;;;21.00;99.90;;;;;;5056553;28;20053;-76
2021/06/19 01:10:26;;;;;;;26.58;10.30;;;20.90;99.90;;;;;;5057099;28;20044;-76
2021/06/19 01:12:53;;;;;;;21.50;10.07;;;21.00;99.90;;;;;;5057106;28;20037;-75
2021/06/19 01:15:18;;;;;;;22.80;9.60;;;21.00;99.90;;;;;;5056583;28;20041;-75
2021/06/19 01:17:45;;;;;;;29.70;10.95;;;21.00;99.90;;;;;;5056647;28;20136;-76
2021/06/19 01:20:17;;;;;;;25.42;11.15;;;21.10;99.90;;;;;;5056950;28;20063;-76
2021/06/19 01:22:45;;;;;;;22.05;10.43;;;21.10;99.90;;;;;;5056930;28;20072;-76
2021/06/19 01:25:19;;;;;;;23.10;10.07;;;21.00;99.90;;;;;;5056890;28;20550;-75
2021/06/19 01:27:48;;;;;;;21.23;9.75;;;21.00;99.90;;;;;;5056811;28;20045;-76
2021/06/19 01:30:14;;;;;;;20.33;10.38;;;21.00;99.90;;;;;;5056956;28;20037;-75
2021/06/19 01:32:40;;;;;;;28.70;10.68;;;21.00;99.90;;;;;;5056555;28;20037;-75
2021/06/19 01:35:08;;;;;;;23.00;10.77;;;21.00;99.90;;;;;;5056577;28;20040;-76
2021/06/19 01:37:34;;;;;;;29.00;10.30;;;21.00;99.90;;;;;;5056216;28;20095;-76
2021/06/19 01:40:06;;;;;;;26.45;10.05;;;21.10;99.90;;;;;;5056528;28;20055;-76
2021/06/19 01:42:33;;;;;;;21.50;9.30;;;21.00;99.90;;;;;;5056225;28;20048;-75
2021/06/19 01:44:58;;;;;;;28.50;10.00;;;21.00;99.90;;;;;;5056478;28;20072;-76
2021/06/19 01:47:27;;;;;;;21.30;9.63;;;21.00;99.90;;;;;;5056429;28;20535;-76
2021/06/19 01:49:53;;;;;;;24.10;11.10;;;21.00;99.90;;;;;;5056241;28;20120;-76
2021/06/19 01:52:19;;;;;;;23.42;9.90;;;20.90;99.90;;;;;;5056479;28;20179;-76
2021/06/19 01:54:45;;;;;;;20.27;9.63;;;20.90;99.90;;;;;;5055955;28;20055;-76
2021/06/19 01:57:11;;;;;;;23.98;9.65;;;20.90;99.90;;;;;;5055776;28;20037;-75
2021/06/19 01:59:37;;;;;;;20.05;9.48;;;20.90;99.90;;;;;;5055995;28;20515;-76
2021/06/19 02:02:03;;;;;;;17.73;9.57;;;20.80;99.90;;;;;;5055767;28;20095;-76
2021/06/19 02:04:33;;;;;;;24.90;10.38;;;20.80;99.90;;;;;;5056145;28;20122;-76
2021/06/19 02:07:00;;;;;;;24.33;9.77;;;20.70;99.90;;;;;;5056200;28;20136;-76
2021/06/19 02:09:26;;;;;;;25.90;9.73;;;20.80;99.90;;;;;;5056311;28;20486;-76
2021/06/19 02:11:51;;;;;;;30.65;9.85;;;20.70;99.90;;;;;;5037879;28;20387;-75
2021/06/19 02:14:17;;;;;;;25.00;9.50;;;20.70;99.90;;;;;;5055827;28;20048;-76
2021/06/19 02:16:44;;;;;;;23.17;10.07;;;20.90;99.90;;;;;;5055809;28;20124;-75
2021/06/19 02:19:10;;;;;;;22.50;9.73;;;20.90;99.90;;;;;;5055821;28;20040;-75
2021/06/19 02:21:36;;;;;;;21.25;9.57;;;20.90;99.90;;;;;;5055448;28;20491;-75
2021/06/19 02:24:02;;;;;;;24.17;9.65;;;21.00;99.90;;;;;;5055870;28;20116;-75
2021/06/19 02:26:28;;;;;;;21.77;9.30;;;21.00;99.90;;;;;;5054874;28;20033;-75
2021/06/19 02:28:54;;;;;;;23.70;8.70;;;20.90;99.90;;;;;;5055328;28;20076;-75
2021/06/19 02:31:21;;;;;;;24.25;9.40;;;20.90;99.90;;;;;;5055282;28;20447;-75
2021/06/19 02:33:48;;;;;;;22.83;9.60;;;20.90;99.90;;;;;;5055929;28;20049;-75
2021/06/19 02:36:15;;;;;;;26.40;9.88;;;20.90;99.90;;;;;;5055436;28;20033;-75
2021/06/19 02:38:41;;;;;;;19.08;9.52;;;20.90;99.90;;;;;;5055332;28;20065;-75
2021/06/19 02:41:07;;;;;;;21.67;9.63;;;21.00;99.90;;;;;;5054921;28;20041;-76
2021/06/19 02:43:33;;;;;;;20.65;9.50;;;21.00;99.90;;;;;;5055368;28;20036;-76
2021/06/19 02:46:00;;;;;;;22.88;9.70;;;21.00;99.90;;;;;;5055279;28;20052;-76
2021/06/19 02:48:27;;;;;;;20.80;9.48;;;21.00;99.90;;;;;;5055227;28;20045;-75
2021/06/19 02:50:53;;;;;;;20.95;9.57;;;21.00;99.90;;;;;;5055222;28;20120;-75
2021/06/19 02:53:19;;;;;;;20.98;9.00;;;21.10;99.90;;;;;;5054677;28;20041;-75
2021/06/19 02:55:45;;;;;;;25.98;9.85;;;21.10;99.90;;;;;;5055290;28;20041;-75
2021/06/19 02:58:15;;;;;;;26.13;9.38;;;21.00;99.90;;;;;;5054792;28;20044;-75
2021/06/19 03:00:42;;;;;;;26.10;9.30;;;21.00;99.90;;;;;;5055030;28;20082;-76
2021/06/19 03:03:08;;;;;;;23.17;10.20;;;21.00;99.90;;;;;;5054812;28;20059;-75
2021/06/19 03:05:36;;;;;;;22.55;9.65;;;21.10;99.90;;;;;;5055219;28;20120;-75
2021/06/19 03:08:03;;;;;;;19.80;8.80;;;21.10;99.90;;;;;;5054558;28;20049;-76
2021/06/19 03:10:33;;;;;;;22.67;8.77;;;21.10;99.90;;;;;;5054633;28;20119;-75
2021/06/19 03:13:00;;;;;;;25.73;9.15;;;21.10;99.90;;;;;;5054879;28;20048;-75
2021/06/19 03:15:26;;;;;;;20.02;9.15;;;21.10;99.90;;;;;;5054942;28;20111;-76
2021/06/19 03:17:52;;;;;;;19.98;9.10;;;21.10;99.90;;;;;;5054701;28;20179;-75
2021/06/19 03:20:19;;;;;;;29.25;9.48;;;21.10;99.90;;;;;;5054710;28;20512;-76
2021/06/19 03:22:49;;;;;;;27.30;10.32;;;21.20;99.90;;;;;;5054639;28;20094;-75
2021/06/19 03:25:27;;;;;;;23.40;8.90;;;21.10;99.90;;;;;;5055291;28;20118;-75
2021/06/19 03:27:53;;;;;;;23.33;9.00;;;21.20;99.90;;;;;;5054646;28;20048;-75
2021/06/19 03:30:21;;;;;;;21.85;9.05;;;21.20;99.90;;;;;;5054272;28;20064;-75
2021/06/19 03:32:47;;;;;;;24.48;8.90;;;21.20;99.90;;;;;;5054893;28;20039;-75
2021/06/19 03:35:15;;;;;;;22.63;8.98;;;21.20;99.90;;;;;;5054387;28;20040;-76
2021/06/19 03:37:41;;;;;;;20.83;9.00;;;21.10;99.90;;;;;;5054146;28;20037;-76
2021/06/19 03:40:09;;;;;;;22.92;8.30;;;21.20;99.90;;;;;;5054162;28;20052;-76
2021/06/19 03:42:35;;;;;;;20.92;8.88;;;21.20;99.90;;;;;;5054210;28;20045;-76
2021/06/19 03:45:01;;;;;;;22.02;9.70;;;21.10;99.90;;;;;;5054425;28;20040;-75
2021/06/19 03:47:27;;;;;;;20.92;9.02;;;21.10;99.90;;;;;;5054270;28;20043;-76
2021/06/19 03:49:53;;;;;;;18.55;8.80;;;21.00;99.90;;;;;;5054092;28;20580;-75
2021/06/19 03:52:19;;;;;;;18.38;9.32;;;21.00;99.90;;;;;;5054286;28;20166;-76
2021/06/19 03:54:45;;;;;;;22.98;9.48;;;20.90;99.90;;;;;;5054170;28;20048;-75
2021/06/19 03:57:22;;;;;;;21.48;9.07;;;20.90;99.90;;;;;;5054028;28;20438;-75
2021/06/19 03:59:48;;;;;;;23.10;8.88;;;20.90;99.90;;;;;;5054015;28;20065;-76
2021/06/19 04:02:14;;;;;;;23.83;9.88;;;20.90;99.90;;;;;;5054276;28;20083;-75
2021/06/19 04:04:41;;;;;;;22.52;9.95;;;20.80;99.90;;;;;;5054960;28;20443;-75
2021/06/19 04:07:07;;;;;;;23.83;10.15;;;20.80;99.90;;;;;;5057863;28;20076;-75
2021/06/19 04:09:32;;;;;;;20.48;9.18;;;20.70;99.90;;;;;;5057842;28;20077;-75
2021/06/19 04:11:58;;;;;;;24.77;10.02;;;20.70;99.90;;;;;;5057753;28;20037;-75
2021/06/19 04:14:24;;;;;;;24.40;10.13;;;20.70;99.90;;;;;;5058093;28;20496;-75
2021/06/19 04:16:50;;;;;;;19.02;9.43;;;20.70;99.90;;;;;;5058175;28;20116;-75
2021/06/19 04:19:16;;;;;;;29.70;10.50;;;20.70;99.90;;;;;;5058033;28;20071;-75
2021/06/19 04:21:41;;;;;;;17.77;9.15;;;20.80;99.90;;;;;;5057885;28;20549;-75
2021/06/19 04:24:07;;;;;;;21.02;10.25;;;20.80;99.90;;;;;;5058267;28;20037;-75
2021/06/19 04:26:33;;;;;;;21.67;10.50;;;20.80;99.90;;;;;;5058009;28;20040;-76
2021/06/19 04:28:59;;;;;;;21.73;9.32;;;20.80;99.90;;;;;;5057597;28;20400;-75
2021/06/19 04:31:25;;;;;;;22.40;9.65;;;20.80;99.90;;;;;;5057562;28;20055;-76
2021/06/19 04:33:51;;;;;;;17.58;10.23;;;20.80;99.90;;;;;;5057743;28;20496;-76
2021/06/19 04:36:17;;;;;;;22.55;9.52;;;20.80;99.90;;;;;;5058211;28;20039;-75
2021/06/19 04:38:43;;;;;;;22.35;9.18;;;20.90;99.90;;;;;;5057648;28;20067;-76
2021/06/19 04:41:21;;;;;;;27.33;10.80;;;20.80;99.90;;;;;;5057851;28;20033;-75
2021/06/19 04:46:14;;;;;;;22.35;9.68;;;21.00;99.90;;;;;;5057346;28;20032;-76
2021/06/19 04:48:40;;;;;;;28.38;9.00;;;21.00;99.90;;;;;;5057520;28;20033;-76
2021/06/19 04:51:06;;;;;;;21.58;8.25;;;21.10;99.90;;;;;;5057646;28;20048;-75
2021/06/19 04:53:32;;;;;;;17.83;8.63;;;21.20;99.90;;;;;;5057413;28;20114;-76
2021/06/19 04:56:01;;;;;;;18.77;7.97;;;21.30;99.90;;;;;;5056805;28;20072;-75
2021/06/19 04:58:28;;;;;;;22.50;9.30;;;21.40;99.90;;;;;;5057364;28;20488;-76
2021/06/19 05:00:54;;;;;;;23.10;9.60;;;21.40;99.90;;;;;;5057230;28;20033;-76
2021/06/19 05:03:22;;;;;;;27.75;9.40;;;21.50;99.90;;;;;;5056897;28;20427;-76
2021/06/19 05:05:50;;;;;;;17.23;8.93;;;21.50;99.90;;;;;;5056874;28;20123;-76
2021/06/19 05:08:15;;;;;;;23.17;9.07;;;21.50;99.90;;;;;;5056796;28;20060;-75
2021/06/19 05:10:41;;;;;;;24.48;9.68;;;21.60;99.90;;;;;;5057084;28;20043;-76
2021/06/19 05:13:07;;;;;;;18.67;8.35;;;21.50;99.90;;;;;;5057638;28;20040;-76
2021/06/19 05:15:33;;;;;;;19.95;9.15;;;21.40;99.90;;;;;;5056577;28;20045;-75
2021/06/19 05:17:59;;;;;;;18.92;8.95;;;21.30;99.90;;;;;;5056671;28;20045;-75
2021/06/19 05:20:31;;;;;;;23.90;8.88;;;21.50;99.90;;;;;;5056985;28;20043;-75
2021/06/19 05:23:08;;;;;;;18.42;9.23;;;21.60;99.90;;;;;;5056656;28;20186;-76
2021/06/19 05:25:33;;;;;;;23.15;9.20;;;21.60;99.90;;;;;;5056347;28;20132;-76
2021/06/19 05:27:59;;;;;;;22.35;9.35;;;21.70;99.90;;;;;;5056731;28;20119;-75
2021/06/19 05:30:25;;;;;;;25.00;9.70;;;21.80;99.90;;;;;;5056369;28;20128;-75
2021/06/19 05:32:51;;;;;;;22.88;9.18;;;21.90;99.90;;;;;;5056534;28;20037;-76
2021/06/19 05:35:17;;;;;;;23.75;8.75;;;21.80;99.90;;;;;;5056915;28;20055;-75
2021/06/19 05:37:43;;;;;;;20.00;9.00;;;21.80;99.90;;;;;;5056578;28;20044;-76
2021/06/19 05:40:09;;;;;;;28.20;9.32;;;21.80;99.90;;;;;;5056842;28;20033;-76
2021/06/19 05:42:35;;;;;;;21.42;9.10;;;21.80;99.90;;;;;;5056342;28;20044;-76
2021/06/19 05:45:01;;;;;;;22.23;9.05;;;21.90;99.90;;;;;;5056825;28;20040;-75
2021/06/19 05:47:26;;;;;;;19.30;8.05;;;21.90;99.90;;;;;;5056404;28;20041;-76
2021/06/19 05:49:52;;;;;;;24.17;8.63;;;21.90;99.90;;;;;;5056399;28;20037;-76
2021/06/19 05:52:19;;;;;;;22.98;9.25;;;21.90;99.90;;;;;;5056406;28;20045;-76
2021/06/19 05:54:44;;;;;;;21.17;8.93;;;21.90;99.90;;;;;;5056172;28;20041;-75
2021/06/19 05:57:10;;;;;;;20.52;8.38;;;21.90;99.90;;;;;;5055750;28;20039;-76
2021/06/19 05:59:37;;;;;;;21.92;9.20;;;21.70;99.90;;;;;;5056238;28;20119;-75
2021/06/19 06:02:04;;;;;;;20.27;7.70;;;21.80;99.90;;;;;;5055808;28;20063;-75
2021/06/19 06:04:33;;;;;;;19.63;8.40;;;21.80;99.90;;;;;;5056082;28;20041;-75
2021/06/19 06:07:00;;;;;;;20.45;8.50;;;21.90;99.90;;;;;;5055939;28;20515;-75
2021/06/19 06:09:26;;;;;;;22.13;9.00;;;21.90;99.90;;;;;;5055099;28;20134;-77
2021/06/19 06:11:52;;;;;;;25.88;9.07;;;21.80;99.90;;;;;;5055318;28;20037;-76
2021/06/19 06:14:18;;;;;;;23.25;8.00;;;21.80;99.90;;;;;;5055497;28;20106;-76
2021/06/19 06:16:44;;;;;;;22.50;9.23;;;21.90;99.90;;;;;;5055901;28;20479;-72
2021/06/19 06:19:10;;;;;;;22.75;8.77;;;21.90;99.90;;;;;;5055364;28;20041;-72
2021/06/19 06:21:36;;;;;;;19.48;8.07;;;21.90;99.90;;;;;;5055741;28;20507;-73
2021/06/19 06:24:02;;;;;;;21.45;9.43;;;21.90;99.90;;;;;;5055694;28;20396;-73
2021/06/19 06:26:29;;;;;;;23.75;9.45;;;21.90;99.90;;;;;;5055125;28;20048;-75
2021/06/19 06:28:55;;;;;;;22.45;9.45;;;21.80;99.90;;;;;;5053252;28;20052;-75
2021/06/19 06:31:21;;;;;;;21.23;9.23;;;21.70;99.90;;;;;;5054246;28;20090;-75
2021/06/19 06:33:47;;;;;;;23.90;9.98;;;21.70;99.90;;;;;;5053711;28;20044;-74
2021/06/19 06:36:13;;;;;;;22.98;8.68;;;21.70;99.90;;;;;;5053366;28;20048;-73
2021/06/19 06:38:39;;;;;;;31.48;9.85;;;21.80;99.90;;;;;;5053446;28;20055;-73
2021/06/19 06:41:05;;;;;;;19.95;8.88;;;21.80;99.90;;;;;;5053057;28;20044;-75
2021/06/19 06:43:31;;;;;;;22.50;8.32;;;21.90;99.90;;;;;;5054633;28;20481;-73
2021/06/19 06:45:57;;;;;;;21.77;8.07;;;21.90;99.90;;;;;;5054225;28;20131;-73
2021/06/19 06:48:23;;;;;;;20.30;8.50;;;22.00;99.90;;;;;;5047132;28;20036;-73
2021/06/19 06:50:50;;;;;;;20.08;8.98;;;22.00;99.90;;;;;;5037904;28;20037;-74
2021/06/19 06:53:16;;;;;;;25.67;9.13;;;22.00;99.90;;;;;;5034856;28;20469;-74
2021/06/19 06:55:42;;;;;;;14.52;8.05;;;22.10;99.90;;;;;;5034920;28;20140;-74
2021/06/19 06:58:08;;;;;;;18.98;7.97;;;22.10;99.90;;;;;;5034765;28;20099;-74
2021/06/19 07:00:34;;;;;;;24.40;10.05;;;22.00;99.90;;;;;;5034807;28;20124;-74
2021/06/19 07:03:00;;;;;;;24.95;8.65;;;22.20;99.90;;;;;;5035035;28;20044;-74
2021/06/19 07:05:26;;;;;;;17.23;8.35;;;22.30;99.90;;;;;;5035636;28;20392;-74
2021/06/19 07:07:52;;;;;;;19.10;8.68;;;22.30;99.90;;;;;;5034845;28;20077;-74
2021/06/19 07:10:18;;;;;;;20.17;8.20;;;22.60;99.90;;;;;;5035136;28;20120;-74
2021/06/19 07:12:45;;;;;;;23.60;8.15;;;22.90;99.90;;;;;;5035114;28;20037;-73
2021/06/19 07:15:14;;;;;;;21.45;8.38;;;22.80;99.90;;;;;;5034457;28;20489;-74
2021/06/19 07:17:40;;;;;;;17.67;7.22;;;23.20;99.90;;;;;;5034790;28;20389;-74
2021/06/19 07:20:08;;;;;;;24.50;7.93;;;24.20;99.90;;;;;;5035375;28;20044;-73
2021/06/19 07:22:35;;;;;;;19.48;7.03;;;26.00;96.50;;;;;;5034673;28;20095;-74
2021/06/19 07:25:01;;;;;;;18.42;7.45;;;25.60;98.30;;;;;;5034843;28;20041;-74
2021/06/19 07:27:29;;;;;;;20.92;8.55;;;24.60;99.90;;;;;;5034773;28;20045;-74
2021/06/19 07:29:55;;;;;;;18.92;7.38;;;24.30;99.90;;;;;;5034673;28;20041;-74
2021/06/19 07:32:21;;;;;;;21.98;7.38;;;23.90;99.90;;;;;;5034610;28;20073;-74
2021/06/19 07:34:47;;;;;;;15.07;7.03;;;23.60;99.90;;;;;;5034420;28;20124;-74
2021/06/19 07:37:12;;;;;;;20.90;6.85;;;23.50;99.90;;;;;;5034233;28;20037;-73
2021/06/19 07:39:38;;;;;;;17.02;7.28;;;23.50;99.90;;;;;;5032890;28;20041;-73
2021/06/19 07:42:05;;;;;;;18.55;7.45;;;23.70;99.90;;;;;;5032534;28;20037;-73
2021/06/19 07:44:31;;;;;;;20.42;7.53;;;23.50;99.90;;;;;;5034290;28;20041;-73
2021/06/19 07:46:58;;;;;;;17.20;7.40;;;23.30;99.90;;;;;;5034249;28;20033;-74
2021/06/19 07:49:26;;;;;;;15.23;7.40;;;23.30;99.90;;;;;;5033243;28;20064;-74
2021/06/19 07:51:52;;;;;;;18.50;8.35;;;23.10;99.90;;;;;;5045113;28;20484;-74
2021/06/19 07:54:18;;;;;;;18.70;7.70;;;23.00;99.90;;;;;;5053784;28;20037;-74
2021/06/19 07:56:44;;;;;;;13.40;7.25;;;22.90;99.90;;;;;;5053991;28;20083;-74
2021/06/19 07:59:09;;;;;;;21.90;8.10;;;23.10;99.90;;;;;;5054159;28;20040;-74
2021/06/19 08:01:35;;;;;;;16.05;7.65;;;23.30;99.90;;;;;;5052885;28;20037;-74
2021/06/19 08:04:01;;;;;;;17.45;7.30;;;23.50;99.90;;;;;;5053295;28;20064;-74
2021/06/19 08:06:27;;;;;;;18.67;7.55;;;23.60;99.90;;;;;;5054517;28;20069;-74
2021/06/19 08:08:54;;;;;;;16.65;6.93;;;23.90;99.90;;;;;;5053654;28;20056;-74
2021/06/19 08:11:22;;;;;;;16.00;7.63;;;23.80;99.90;;;;;;5053347;28;20039;-73
2021/06/19 08:13:48;;;;;;;21.83;8.05;;;23.50;99.90;;;;;;5053514;28;20037;-74
2021/06/19 08:16:17;;;;;;;21.58;8.02;;;23.30;99.90;;;;;;5053643;28;20044;-73
2021/06/19 08:18:44;;;;;;;18.30;7.43;;;23.20;99.90;;;;;;5053043;28;20090;-73
2021/06/19 08:21:10;;;;;;;20.55;8.20;;;22.90;99.90;;;;;;5054077;28;20526;-73
2021/06/19 08:23:36;;;;;;;20.23;7.47;;;23.10;99.90;;;;;;5053689;28;20515;-73
2021/06/19 08:26:01;;;;;;;16.50;7.53;;;23.50;99.90;;;;;;5053542;28;20099;-73
2021/06/19 08:28:27;;;;;;;19.33;7.10;;;24.10;99.90;;;;;;5053676;28;20037;-73
2021/06/19 08:30:53;;;;;;;12.50;6.13;;;24.50;99.90;;;;;;5053834;28;20041;-74
2021/06/19 08:33:19;;;;;;;20.73;7.53;;;24.70;99.90;;;;;;5052560;28;20055;-73
2021/06/19 08:35:45;;;;;;;13.55;7.10;;;24.60;99.90;;;;;;5051757;28;20041;-74
2021/06/19 08:38:10;;;;;;;16.15;6.95;;;24.50;99.90;;;;;;5052753;28;20049;-75
2021/06/19 08:40:38;;;;;;;16.65;7.07;;;24.90;99.90;;;;;;5053090;28;20070;-75
2021/06/19 08:43:04;;;;;;;23.25;6.95;;;24.70;99.90;;;;;;5053567;28;20044;-75
2021/06/19 08:45:32;;;;;;;12.10;6.88;;;24.10;99.90;;;;;;5053559;28;20522;-74
2021/06/19 08:48:02;;;;;;;18.40;7.45;;;24.10;99.90;;;;;;5053378;28;20033;-74
2021/06/19 08:50:29;;;;;;;16.40;7.20;;;24.10;99.90;;;;;;5053523;28;20056;-74
2021/06/19 08:52:57;;;;;;;17.83;7.20;;;24.00;99.90;;;;;;5042768;28;20258;-74
2021/06/19 08:55:23;;;;;;;21.40;7.40;;;24.00;99.90;;;;;;5053034;28;20040;-74
2021/06/19 08:57:49;;;;;;;23.75;6.82;;;23.90;99.90;;;;;;5054309;28;20043;-74
2021/06/19 09:00:16;;;;;;;17.77;7.15;;;23.80;99.90;;;;;;5054616;28;20506;-74
2021/06/19 09:02:43;;;;;;;21.30;7.38;;;23.70;99.90;;;;;;5053858;28;20576;-76
2021/06/19 09:05:14;;;;;;;21.15;7.45;;;23.60;99.90;;;;;;5054223;28;20170;-75
2021/06/19 09:07:47;;;;;;;19.17;6.97;;;23.50;99.90;;;;;;5054460;28;20115;-74
2021/06/19 09:10:34;;;;;;;19.67;6.80;;;23.40;99.90;;;;;;5056869;28;20158;-74
2021/06/19 09:13:22;;;;;;;24.95;7.22;;;23.40;99.90;;;;;;5055519;28;20033;-75
2021/06/19 09:15:54;;;;;;;21.08;7.07;;;23.40;99.90;;;;;;5055294;28;20048;-74
2021/06/19 09:18:28;;;;;;;29.67;7.70;;;23.30;99.90;;;;;;5054545;28;20055;-74
2021/06/19 09:21:12;;;;;;;25.42;8.15;;;23.10;99.90;;;;;;5054684;28;20037;-74
2021/06/19 09:23:47;;;;;;;21.98;7.80;;;23.00;99.90;;;;;;5056104;28;20037;-74
2021/06/19 09:26:14;;;;;;;21.75;7.57;;;23.10;99.90;;;;;;5055956;28;20120;-74
2021/06/19 09:28:59;;;;;;;24.92;7.82;;;23.20;99.90;;;;;;5056640;28;20033;-74
2021/06/19 09:31:36;;;;;;;24.77;7.15;;;23.30;99.90;;;;;;5055125;28;20029;-75
2021/06/19 09:34:40;;;;;;;20.80;7.65;;;23.30;99.90;;;;;;5056624;28;20044;-76
2021/06/19 09:37:08;;;;;;;19.63;7.35;;;23.70;99.90;;;;;;4995057;28;20042;-76
2021/06/19 09:39:36;;;;;;;20.98;7.82;;;23.90;99.90;;;;;;5045435;28;20037;-75
2021/06/19 09:42:04;;;;;;;24.52;7.18;;;24.00;99.90;;;;;;5055710;28;20033;-75
2021/06/19 09:44:39;;;;;;;15.95;6.88;;;24.00;99.90;;;;;;5055316;28;20438;-76
2021/06/19 09:47:10;;;;;;;18.08;6.63;;;24.10;99.90;;;;;;5056166;28;20519;-75
2021/06/19 09:49:41;;;;;;;19.00;6.93;;;24.20;99.90;;;;;;5056726;28;20047;-75
2021/06/19 09:52:09;;;;;;;17.08;6.80;;;24.10;99.90;;;;;;5056565;28;20035;-75
2021/06/19 09:54:42;;;;;;;16.42;6.45;;;24.10;99.90;;;;;;5056452;28;20052;-76
2021/06/19 09:57:16;;;;;;;19.85;6.53;;;24.50;99.90;;;;;;5055788;28;20507;-76
2021/06/19 09:59:43;;;;;;;22.73;6.63;;;25.00;99.90;;;;;;5055795;28;20040;-76
2021/06/19 10:02:16;;;;;;;19.83;6.95;;;25.20;99.30;;;;;;5055313;28;20029;-76
2021/06/19 10:04:47;;;;;;;18.48;6.53;;;25.10;98.60;;;;;;5055397;28;20493;-76
2021/06/19 10:07:13;;;;;;;17.10;6.75;;;25.00;99.40;;;;;;5056059;28;20033;-76
2021/06/19 10:09:40;;;;;;;17.95;6.05;;;25.00;99.90;;;;;;5055452;28;20389;-76
2021/06/19 10:12:06;;;;;;;29.58;6.75;;;25.10;99.90;;;;;;5055797;28;20037;-75
2021/06/19 10:14:32;;;;;;;20.50;7.03;;;25.10;99.90;;;;;;5055568;28;20063;-76
2021/06/19 10:16:59;;;;;;;19.13;6.95;;;24.80;99.90;;;;;;5056325;28;20032;-76
2021/06/19 10:19:26;;;;;;;18.23;6.97;;;24.70;99.90;;;;;;5055423;28;20033;-76
2021/06/19 10:21:56;;;;;;;22.90;7.10;;;24.80;99.90;;;;;;5055653;28;20048;-75
2021/06/19 10:24:24;;;;;;;15.23;6.40;;;24.60;99.90;;;;;;5056258;28;20082;-76
2021/06/19 10:26:52;;;;;;;21.98;7.78;;;24.50;99.90;;;;;;5055689;28;20761;-76
2021/06/19 10:29:23;;;;;;;25.52;7.03;;;24.40;99.90;;;;;;5055807;28;20087;-76
2021/06/19 10:31:50;;;;;;;19.83;7.43;;;24.30;99.90;;;;;;5055347;28;20032;-76
2021/06/19 10:34:25;;;;;;;23.75;7.53;;;24.70;99.90;;;;;;5055500;28;20086;-76
2021/06/19 10:37:07;;;;;;;18.58;5.90;;;25.10;99.90;;;;;;5055584;28;20120;-76
2021/06/19 10:39:40;;;;;;;23.30;6.97;;;25.50;98.30;;;;;;5054821;28;20032;-76
2021/06/19 10:42:28;;;;;;;22.42;6.50;;;25.50;97.30;;;;;;5054873;28;20040;-76
2021/06/19 10:45:06;;;;;;;21.15;7.22;;;25.90;94.30;;;;;;5055573;28;20049;-74
2021/06/19 10:48:12;;;;;;;19.17;6.53;;;25.80;94.60;;;;;;5055149;28;20396;-73
2021/06/19 10:50:41;;;;;;;22.92;6.70;;;25.90;93.50;;;;;;5053173;28;20087;-74
2021/06/19 10:53:19;;;;;;;18.77;5.68;;;26.20;94.20;;;;;;5054910;28;20037;-74
2021/06/19 10:55:44;;;;;;;23.73;6.35;;;26.40;92.10;;;;;;5053684;28;20076;-73
2021/06/19 10:58:31;;;;;;;16.13;5.53;;;26.30;93.50;;;;;;5054446;28;20064;-73
2021/06/19 11:01:00;;;;;;;24.02;6.47;;;26.30;92.90;;;;;;5053353;28;20048;-73
2021/06/19 11:03:47;;;;;;;21.30;6.15;;;26.40;93.30;;;;;;5054211;28;20139;-73
2021/06/19 11:06:36;;;;;;;20.38;6.95;;;26.20;91.50;;;;;;5054499;28;20089;-73
2021/06/19 11:09:16;;;;;;;21.70;6.57;;;26.30;92.10;;;;;;5054778;28;20076;-73
2021/06/19 11:11:55;;;;;;;17.70;5.57;;;26.30;92.70;;;;;;5054136;28;20504;-73
2021/06/19 11:14:42;;;;;;;18.65;6.35;;;26.30;91.70;;;;;;5053717;28;20388;-74
2021/06/19 11:17:31;;;;;;;20.50;6.50;;;26.10;92.20;;;;;;5054945;28;20033;-73
2021/06/19 11:20:06;;;;;;;24.50;6.43;;;26.10;93.10;;;;;;5047857;28;20400;-73
2021/06/19 11:22:52;;;;;;;22.25;6.53;;;26.10;94.90;;;;;;5054826;28;20106;-73
2021/06/19 11:28:20;;;;;;;26.00;6.65;;;25.50;94.40;;;;;;5054152;28;20067;-73
2021/06/19 11:30:47;;;;;;;20.60;6.43;;;26.10;93.10;;;;;;5054584;28;20041;-73
2021/06/19 11:33:16;;;;;;;21.48;6.45;;;26.20;92.20;;;;;;5054522;28;20033;-73
2021/06/19 11:35:46;;;;;;;16.08;5.38;;;26.30;91.10;;;;;;5054483;28;20048;-73
2021/06/19 11:38:12;;;;;;;23.45;5.55;;;26.60;88.00;;;;;;5054607;28;20064;-74
2021/06/19 11:40:39;;;;;;;15.20;5.78;;;26.80;87.40;;;;;;5036711;28;20045;-73
2021/06/19 11:43:06;;;;;;;24.70;5.90;;;27.00;88.90;;;;;;5053941;28;20194;-73
2021/06/19 11:45:33;;;;;;;21.33;6.78;;;26.90;84.10;;;;;;5054949;28;20041;-73
2021/06/19 11:48:00;;;;;;;22.20;6.60;;;26.70;85.80;;;;;;5052055;28;20037;-74
2021/06/19 11:50:30;;;;;;;16.67;5.65;;;26.50;88.90;;;;;;5043889;28;20049;-73
2021/06/19 11:52:56;;;;;;;12.52;5.90;;;26.40;89.40;;;;;;5033658;28;20041;-73
2021/06/19 11:55:22;;;;;;;27.20;6.13;;;26.60;88.90;;;;;;5033682;28;20513;-74
2021/06/19 11:57:57;;;;;;;17.77;5.88;;;26.60;90.00;;;;;;5034040;28;20110;-74
2021/06/19 12:00:23;;;;;;;17.33;5.68;;;26.60;87.50;;;;;;5035135;28;20359;-74
2021/06/19 12:02:53;;;;;;;19.98;6.72;;;26.70;88.50;;;;;;5034015;28;20048;-74
2021/06/19 12:05:19;;;;;;;20.92;6.07;;;26.70;87.70;;;;;;5034254;28;20045;-74
2021/06/19 12:07:46;;;;;;;20.77;6.28;;;26.90;86.40;;;;;;5033772;28;20041;-75
2021/06/19 12:10:31;;;;;;;22.60;6.20;;;27.00;84.80;;;;;;5034290;28;20037;-74
2021/06/19 12:13:04;;;;;;;24.30;5.85;;;26.80;88.00;;;;;;5033772;28;20075;-74
2021/06/19 12:15:33;;;;;;;17.88;4.93;;;26.80;89.10;;;;;;5034403;28;20056;-74
2021/06/19 12:18:00;;;;;;;23.17;5.88;;;27.00;84.80;;;;;;5034179;28;20042;-74
2021/06/19 12:20:27;;;;;;;20.27;5.50;;;27.10;85.70;;;;;;5033815;28;20102;-74
2021/06/19 12:22:53;;;;;;;21.40;6.32;;;27.00;84.00;;;;;;5033752;28;20493;-74
2021/06/19 12:25:29;;;;;;;20.65;6.55;;;26.70;90.60;;;;;;5033513;28;20050;-74
2021/06/19 12:27:55;;;;;;;21.05;5.50;;;26.50;90.40;;;;;;5037880;28;20539;-74
2021/06/19 12:30:21;;;;;;;18.95;5.82;;;26.70;90.40;;;;;;5037953;28;20041;-74
2021/06/19 12:32:48;;;;;;;26.13;6.55;;;26.80;87.90;;;;;;5037821;28;20029;-74
2021/06/19 12:35:17;;;;;;;19.50;5.95;;;27.00;89.80;;;;;;5038229;28;20080;-74
2021/06/19 12:37:55;;;;;;;20.67;6.05;;;27.10;84.60;;;;;;5037862;28;20041;-74
2021/06/19 12:40:31;;;;;;;20.35;5.68;;;27.30;85.70;;;;;;5038191;28;20484;-74
2021/06/19 12:43:01;;;;;;;22.63;6.55;;;27.30;87.00;;;;;;5037203;28;20385;-74
2021/06/19 12:46:02;;;;;;;22.95;5.38;;;27.50;84.80;;;;;;5019689;28;20045;-74
2021/06/19 12:48:29;;;;;;;18.10;5.38;;;27.60;86.80;;;;;;5016031;28;20504;-74